Terminal Aerodrome Forecast
Issued by NWS Cleveland, OH

Home | Current Version | Previous Version | Graphics & Text | Print | Product List | Glossary Off
Versions: 1 2 3 4 5 6 7 8 9 10 11 12 13 14 15 16 17

000
FTUS41 KCLE 042300
TAFCAK
TAF
KCAK 042326Z 0500/0524 25008KT P6SM SCT045 BKN060
     FM051200 VRB04KT 5SM BR SCT045 BKN100
     FM051500 VRB04KT 3SM -SHRA BR OVC020=

USA.gov is the U.S. government's official web portal to all federal, state and local government web resources and services.